| time (UTC) | temp C | wind direction | speed KPH | gust KPH | rain 1hr cm | rain 24hr cm | rain mn cm | humidity % | barometer mb |
| 20260510065704 | 11 | 228 | 0.0 | 0.0 | 0.03 | 1.85 | 0.46 | 99 | 1007.1 |
| 20260510065203 | 11 | 228 | 0.0 | 0.0 | 0.03 | 1.85 | 0.46 | 99 | 1007.1 |
| 20260510064704 | 11 | 228 | 0.0 | 0.0 | 0.03 | 1.85 | 0.46 | 99 | 1007.1 |
| 20260510064204 | 11 | 228 | 0.0 | 0.0 | 0.03 | 1.85 | 0.46 | 99 | 1007.2 |
| 20260510063703 | 11 | 228 | 0.0 | 0.0 | 0.03 | 1.85 | 0.46 | 99 | 1007.1 |
| 20260510063204 | 12 | 228 | 0.0 | 0.0 | 0.03 | 1.85 | 0.46 | 99 | 1007.1 |
| 20260510062704 | 12 | 228 | 0.0 | 0.0 | 0.03 | 1.85 | 0.46 | 99 | 1007.4 |
| 20260510062203 | 12 | 228 | 0.0 | 0.0 | 0.03 | 1.85 | 0.46 | 99 | 1007.5 |
| 20260510061703 | 12 | 225 | 0.0 | 0.0 | 0.03 | 1.85 | 0.46 | 99 | 1007.6 |
| 20260510060705 | 11 | 229 | 0.0 | 4.8 | 0.03 | 1.85 | 0.46 | 99 | 1007.5 |
| 20260510060204 | 11 | 229 | 0.0 | 0.0 | 0.00 | 1.83 | 0.43 | 99 | 1008.3 |
| 20260510055703 | 11 | 219 | 0.0 | 0.0 | 0.00 | 1.83 | 0.43 | 99 | 1008.1 |
| 20260510055203 | 11 | 218 | 0.0 | 0.0 | 0.00 | 1.83 | 0.43 | 98 | 1007.7 |
| 20260510054704 | 11 | 218 | 0.0 | 0.0 | 0.00 | 1.83 | 0.43 | 98 | 1007.6 |
| 20260510054204 | 11 | 218 | 0.0 | 0.0 | 0.10 | 1.83 | 0.43 | 98 | 1007.6 |
| 20260510053703 | 11 | 219 | 0.0 | 0.0 | 0.25 | 1.83 | 0.43 | 99 | 1007.7 |
| 20260510051704 | 12 | 218 | 0.0 | 0.0 | 0.28 | 1.83 | 0.43 | 98 | 1007.7 |
| 20260510051203 | 12 | 218 | 0.0 | 0.0 | 0.30 | 1.83 | 0.43 | 98 | 1007.6 |
| 20260510050704 | 12 | 218 | 0.0 | 0.0 | 0.36 | 1.83 | 0.43 | 98 | 1007.6 |
| 20260510045703 | 12 | 218 | 0.0 | 0.0 | 0.46 | 1.83 | 0.43 | 98 | 1007.4 |
| 20260510045203 | 12 | 207 | 0.0 | 0.0 | 0.46 | 1.83 | 0.43 | 98 | 1007.4 |
| 20260510044704 | 12 | 205 | 0.0 | 0.0 | 0.48 | 1.85 | 0.43 | 98 | 1007.2 |
| 20260510044204 | 12 | 97 | 0.0 | 0.0 | 0.38 | 1.75 | 0.33 | 98 | 1008.1 |
| 20260510043703 | 12 | 214 | 0.0 | 0.0 | 0.23 | 1.60 | 0.18 | 98 | 1008.4 |
| 20260510042704 | 12 | 211 | 0.0 | 0.0 | 0.20 | 1.57 | 0.15 | 98 | 1007.9 |
| 20260510042204 | 12 | 202 | 0.0 | 0.0 | 0.20 | 1.57 | 0.15 | 98 | 1007.9 |
| 20260510041204 | 12 | 201 | 0.0 | 0.0 | 0.18 | 1.55 | 0.13 | 98 | 1008.0 |
| 20260510040703 | 12 | 257 | 0.0 | 0.0 | 0.13 | 1.50 | 0.08 | 98 | 1008.1 |
| 20260510040204 | 12 | 257 | 0.0 | 0.0 | 0.08 | 1.45 | 0.03 | 98 | 1007.9 |
| 20260510035703 | 12 | 257 | 0.0 | 0.0 | 0.05 | 1.42 | 1.42 | 98 | 1007.7 |
| 20260510034704 | 12 | 265 | 0.0 | 0.0 | 0.00 | 1.37 | 1.37 | 98 | 1007.6 |
| 20260510034203 | 12 | 263 | 0.0 | 0.0 | 0.00 | 1.37 | 1.37 | 98 | 1007.5 |
| 20260510033703 | 12 | 253 | 0.0 | 0.0 | 0.00 | 1.37 | 1.37 | 98 | 1007.4 |
| 20260510033203 | 12 | 235 | 0.0 | 0.0 | 0.00 | 1.37 | 1.37 | 98 | 1007.1 |
| 20260510032704 | 12 | 217 | 0.0 | 0.0 | 0.00 | 1.37 | 1.37 | 98 | 1006.9 |
| 20260510032203 | 12 | 235 | 0.0 | 0.0 | 0.00 | 1.40 | 1.37 | 97 | 1006.9 |
| 20260510031704 | 12 | 193 | 0.0 | 0.0 | 0.00 | 1.40 | 1.37 | 97 | 1006.9 |
| 20260510030705 | 12 | 249 | 0.0 | 0.0 | 0.03 | 1.40 | 1.37 | 97 | 1007.0 |
| 20260510025704 | 12 | 250 | 0.0 | 0.0 | 0.10 | 1.40 | 1.37 | 97 | 1007.1 |
| 20260510025204 | 12 | 263 | 0.0 | 0.0 | 0.15 | 1.42 | 1.37 | 97 | 1007.2 |
| 20260510024704 | 12 | 263 | 0.0 | 0.0 | 0.23 | 1.42 | 1.37 | 97 | 1007.3 |
| 20260510024205 | 12 | 263 | 0.0 | 0.0 | 0.28 | 1.42 | 1.37 | 96 | 1007.3 |
| 20260510023703 | 12 | 253 | 0.0 | 0.0 | 0.33 | 1.42 | 1.37 | 96 | 1007.3 |
| 20260510023203 | 12 | 210 | 0.0 | 0.0 | 0.38 | 1.42 | 1.37 | 96 | 1007.4 |
| 20260510022704 | 12 | 210 | 0.0 | 0.0 | 0.46 | 1.45 | 1.37 | 96 | 1007.4 |
| 20260510022204 | 12 | 210 | 0.0 | 0.0 | 0.79 | 1.45 | 1.37 | 95 | 1007.4 |
| 20260510021704 | 12 | 210 | 0.0 | 0.0 | 1.09 | 1.45 | 1.37 | 95 | 1007.4 |
| 20260510020204 | 12 | 210 | 0.0 | 0.0 | 1.04 | 1.40 | 1.32 | 94 | 1007.8 |
| 20260510015703 | 12 | 210 | 0.0 | 0.0 | 0.99 | 1.37 | 1.27 | 93 | 1008.1 |
| 20260510015204 | 13 | 210 | 0.0 | 0.0 | 0.94 | 1.32 | 1.22 | 92 | 1008.1 |
| 20260510014704 | 13 | 210 | 0.0 | 0.0 | 0.86 | 1.24 | 1.14 | 91 | 1007.8 |
| 20260510013704 | 13 | 173 | 0.0 | 0.0 | 0.76 | 1.14 | 1.04 | 88 | 1007.7 |
| 20260510012704 | 14 | 117 | 0.0 | 1.6 | 0.64 | 1.04 | 0.91 | 83 | 1007.3 |
| 20260510012204 | 15 | 208 | 0.0 | 0.0 | 0.30 | 0.71 | 0.58 | 80 | 1007.3 |
| 20260510011704 | 16 | 215 | 0.0 | 0.0 | 0.00 | 0.41 | 0.28 | 76 | 1007.2 |
| 20260510011204 | 16 | 249 | 0.0 | 0.0 | 0.00 | 0.41 | 0.28 | 72 | 1006.6 |
| 20260510010704 | 17 | 297 | 0.0 | 0.0 | 0.00 | 0.41 | 0.28 | 67 | 1005.8 |
| 20260510010204 | 16 | 280 | 0.0 | 0.0 | 0.00 | 0.41 | 0.28 | 67 | 1005.1 |
| 20260510005703 | 16 | 212 | 0.0 | 0.0 | 0.00 | 0.41 | 0.28 | 67 | 1005.0 |
| 20260510005203 | 16 | 191 | 0.0 | 0.0 | 0.00 | 0.41 | 0.28 | 67 | 1004.9 |
| 20260510004204 | 17 | 193 | 0.0 | 0.0 | 0.00 | 0.41 | 0.28 | 66 | 1005.0 |
| 20260510003204 | 17 | 216 | 0.0 | 0.0 | 0.00 | 0.41 | 0.28 | 65 | 1005.0 |
| 20260510002703 | 17 | 260 | 0.0 | 0.0 | 0.00 | 0.43 | 0.28 | 64 | 1004.9 |
| 20260510002204 | 17 | 230 | 0.0 | 0.0 | 0.00 | 0.43 | 0.28 | 64 | 1004.9 |
| 20260510001704 | 17 | 203 | 0.0 | 0.0 | 0.00 | 0.43 | 0.28 | 64 | 1004.8 |
| 20260510001204 | 17 | 214 | 0.0 | 0.0 | 0.00 | 0.43 | 0.28 | 63 | 1004.7 |
| 20260510000704 | 17 | 272 | 0.0 | 0.0 | 0.00 | 0.43 | 0.28 | 63 | 1004.6 |
| 20260510000204 | 17 | 240 | 0.0 | 0.0 | 0.00 | 0.43 | 0.28 | 63 | 1004.6 |
| 20260509235704 | 17 | 215 | 0.0 | 0.0 | 0.00 | 0.43 | 0.28 | 62 | 1004.6 |
| 20260509235204 | 18 | 259 | 0.0 | 0.0 | 0.00 | 0.43 | 0.28 | 62 | 1004.5 |
| 20260509234704 | 18 | 241 | 0.0 | 3.2 | 0.00 | 0.43 | 0.28 | 61 | 1004.5 |
| 20260509234204 | 18 | 281 | 1.6 | 4.8 | 0.00 | 0.43 | 0.28 | 61 | 1004.4 |
| 20260509233703 | 18 | 283 | 0.0 | 1.6 | 0.00 | 0.43 | 0.28 | 61 | 1004.4 |
| 20260509233204 | 18 | 276 | 0.0 | 1.6 | 0.00 | 0.43 | 0.28 | 61 | 1004.3 |
| 20260509232204 | 18 | 232 | 0.0 | 4.8 | 0.00 | 0.43 | 0.28 | 60 | 1004.3 |
| 20260509231704 | 18 | 190 | 0.0 | 0.0 | 0.00 | 0.43 | 0.28 | 60 | 1004.2 |
| 20260509225704 | 19 | 214 | 0.0 | 0.0 | 0.00 | 0.43 | 0.28 | 57 | 1004.3 |
| 20260509224703 | 20 | 259 | 0.0 | 0.0 | 0.00 | 0.43 | 0.28 | 56 | 1004.4 |
| 20260509224203 | 20 | 183 | 0.0 | 1.6 | 0.00 | 0.43 | 0.28 | 55 | 1004.4 |
| 20260509223703 | 20 | 277 | 0.0 | 3.2 | 0.00 | 0.43 | 0.28 | 55 | 1004.3 |
| 20260509223203 | 20 | 197 | 0.0 | 3.2 | 0.00 | 0.43 | 0.28 | 54 | 1004.3 |
| 20260509222704 | 20 | 227 | 0.0 | 4.8 | 0.00 | 0.43 | 0.28 | 54 | 1004.3 |
| 20260509222204 | 20 | 253 | 0.0 | 9.7 | 0.00 | 0.43 | 0.28 | 54 | 1004.3 |
| 20260509221704 | 20 | 256 | 0.0 | 1.6 | 0.00 | 0.43 | 0.28 | 56 | 1004.3 |
| 20260509220704 | 20 | 246 | 1.6 | 9.7 | 0.00 | 0.43 | 0.28 | 56 | 1004.3 |
| 20260509220204 | 20 | 284 | 0.0 | 4.8 | 0.00 | 0.43 | 0.28 | 55 | 1004.4 |
| 20260509215703 | 20 | 260 | 1.6 | 9.7 | 0.00 | 0.43 | 0.28 | 56 | 1004.5 |
| 20260509215203 | 20 | 185 | 1.6 | 8.0 | 0.00 | 0.43 | 0.28 | 55 | 1004.4 |
| 20260509214704 | 20 | 199 | 1.6 | 11.3 | 0.00 | 0.43 | 0.28 | 55 | 1004.5 |
| 20260509214204 | 20 | 227 | 0.0 | 4.8 | 0.00 | 0.43 | 0.28 | 56 | 1004.6 |
| 20260509213704 | 20 | 198 | 1.6 | 4.8 | 0.00 | 0.43 | 0.28 | 56 | 1004.6 |
| 20260509213204 | 20 | 222 | 1.6 | 4.8 | 0.00 | 0.43 | 0.28 | 55 | 1004.5 |
| 20260509212203 | 20 | 169 | 3.2 | 19.3 | 0.00 | 0.43 | 0.28 | 55 | 1004.5 |
| 20260509211704 | 20 | 187 | 1.6 | 8.0 | 0.00 | 0.43 | 0.28 | 57 | 1004.6 |
| 20260509211204 | 20 | 193 | 1.6 | 4.8 | 0.00 | 0.43 | 0.28 | 57 | 1004.6 |
| 20260509210203 | 20 | 263 | 0.0 | 3.2 | 0.00 | 0.43 | 0.28 | 57 | 1004.7 |
| 20260509205703 | 20 | 197 | 1.6 | 16.1 | 0.00 | 0.43 | 0.28 | 57 | 1004.6 |
| 20260509205204 | 20 | 275 | 1.6 | 12.9 | 0.00 | 0.43 | 0.28 | 57 | 1004.6 |
| 20260509204704 | 20 | 173 | 1.6 | 8.0 | 0.00 | 0.43 | 0.28 | 57 | 1004.8 |
| 20260509204204 | 20 | 211 | 0.0 | 4.8 | 0.00 | 0.43 | 0.28 | 58 | 1004.9 |
| 20260509203703 | 20 | 234 | 0.0 | 1.6 | 0.00 | 0.43 | 0.28 | 60 | 1004.9 |
| 20260509202704 | 19 | 269 | 0.0 | 1.6 | 0.00 | 0.43 | 0.28 | 59 | 1005.2 |
| 20260509202204 | 19 | 263 | 0.0 | 4.8 | 0.00 | 0.43 | 0.28 | 59 | 1005.3 |
| 20260509201704 | 19 | 273 | 0.0 | 8.0 | 0.00 | 0.43 | 0.28 | 59 | 1005.4 |
| 20260509201205 | 19 | 255 | 0.0 | 9.7 | 0.00 | 0.43 | 0.28 | 57 | 1005.5 |
| 20260509200703 | 19 | 284 | 0.0 | 3.2 | 0.00 | 0.43 | 0.28 | 59 | 1005.5 |
| 20260509200203 | 19 | 211 | 0.0 | 0.0 | 0.00 | 0.43 | 0.28 | 61 | 1005.5 |
| 20260509195704 | 19 | 205 | 0.0 | 3.2 | 0.00 | 0.43 | 0.28 | 60 | 1005.5 |
| 20260509195204 | 20 | 294 | 1.6 | 4.8 | 0.00 | 0.43 | 0.28 | 58 | 1005.6 |
| 20260509194204 | 19 | 254 | 0.0 | 1.6 | 0.00 | 0.43 | 0.28 | 60 | 1005.8 |
| 20260509193704 | 20 | 276 | 0.0 | 4.8 | 0.00 | 0.43 | 0.28 | 60 | 1005.9 |
| 20260509193203 | 20 | 267 | 0.0 | 8.0 | 0.00 | 0.43 | 0.28 | 62 | 1006.0 |
| 20260509192703 | 20 | 279 | 0.0 | 1.6 | 0.00 | 0.43 | 0.28 | 63 | 1006.1 |
| 20260509192204 | 19 | 248 | 0.0 | 3.2 | 0.00 | 0.43 | 0.28 | 60 | 1006.2 |
| 20260509191704 | 19 | 239 | 0.0 | 1.6 | 0.00 | 0.43 | 0.28 | 61 | 1006.1 |
| 20260509190703 | 20 | 147 | 0.0 | 4.8 | 0.00 | 0.46 | 0.28 | 62 | 1006.0 |
| 20260509190203 | 20 | 291 | 0.0 | 0.0 | 0.00 | 0.46 | 0.28 | 65 | 1006.1 |
| 20260509185704 | 19 | 197 | 0.0 | 3.2 | 0.00 | 0.48 | 0.28 | 65 | 1006.2 |
| 20260509185204 | 19 | 292 | 0.0 | 0.0 | 0.00 | 0.48 | 0.28 | 65 | 1006.3 |
| 20260509184704 | 19 | 288 | 0.0 | 8.0 | 0.00 | 0.48 | 0.28 | 65 | 1006.3 |
| 20260509184204 | 19 | 181 | 0.0 | 8.0 | 0.00 | 0.48 | 0.28 | 67 | 1006.3 |
| 20260509183704 | 18 | 288 | 0.0 | 0.0 | 0.00 | 0.48 | 0.28 | 70 | 1006.3 |
| 20260509183204 | 18 | 225 | 0.0 | 4.8 | 0.00 | 0.48 | 0.28 | 71 | 1006.4 |
| 20260509182705 | 18 | 283 | 0.0 | 4.8 | 0.00 | 0.48 | 0.28 | 68 | 1006.4 |
| 20260509182203 | 18 | 274 | 0.0 | 1.6 | 0.00 | 0.48 | 0.28 | 71 | 1006.4 |
| 20260509181203 | 18 | 296 | 0.0 | 1.6 | 0.00 | 0.48 | 0.28 | 68 | 1006.6 |
| 20260509180703 | 18 | 222 | 0.0 | 0.0 | 0.00 | 0.48 | 0.28 | 72 | 1006.6 |
| 20260509180204 | 17 | 235 | 0.0 | 3.2 | 0.00 | 0.48 | 0.28 | 73 | 1006.7 |
| 20260509175704 | 17 | 219 | 0.0 | 0.0 | 0.00 | 0.48 | 0.28 | 75 | 1006.7 |
| 20260509175204 | 17 | 242 | 0.0 | 4.8 | 0.00 | 0.48 | 0.28 | 72 | 1006.8 |
| 20260509174704 | 17 | 246 | 0.0 | 4.8 | 0.00 | 0.48 | 0.28 | 72 | 1006.8 |
| 20260509174204 | 17 | 299 | 0.0 | 0.0 | 0.00 | 0.48 | 0.28 | 74 | 1006.7 |
| 20260509173703 | 17 | 232 | 0.0 | 0.0 | 0.00 | 0.48 | 0.28 | 73 | 1006.8 |
| 20260509173204 | 17 | 221 | 1.6 | 16.1 | 0.00 | 0.48 | 0.28 | 75 | 1006.9 |
| 20260509172703 | 16 | 279 | 0.0 | 1.6 | 0.00 | 0.48 | 0.28 | 77 | 1006.8 |
| 20260509172203 | 16 | 214 | 1.6 | 4.8 | 0.00 | 0.48 | 0.28 | 79 | 1006.7 |
| 20260509171704 | 16 | 177 | 0.0 | 1.6 | 0.00 | 0.48 | 0.28 | 80 | 1006.8 |
| 20260509171204 | 16 | 280 | 0.0 | 1.6 | 0.00 | 0.48 | 0.28 | 80 | 1006.8 |
| 20260509170704 | 16 | 265 | 0.0 | 0.0 | 0.00 | 0.48 | 0.28 | 81 | 1006.8 |
| 20260509165704 | 15 | 288 | 0.0 | 1.6 | 0.00 | 0.48 | 0.28 | 80 | 1006.7 |
| 20260509164704 | 15 | 237 | 0.0 | 0.0 | 0.00 | 0.48 | 0.28 | 81 | 1006.7 |
| 20260509163704 | 16 | 239 | 0.0 | 0.0 | 0.00 | 0.48 | 0.28 | 81 | 1006.7 |
| 20260509163204 | 15 | 194 | 0.0 | 0.0 | 0.00 | 0.48 | 0.28 | 87 | 1006.7 |
| 20260509162704 | 15 | 230 | 0.0 | 0.0 | 0.00 | 0.48 | 0.28 | 84 | 1006.6 |
| 20260509162203 | 15 | 196 | 0.0 | 0.0 | 0.00 | 0.48 | 0.28 | 87 | 1006.7 |
| 20260509161703 | 15 | 260 | 0.0 | 0.0 | 0.00 | 0.48 | 0.28 | 88 | 1006.6 |
| 20260509161204 | 14 | 219 | 0.0 | 0.0 | 0.00 | 0.48 | 0.28 | 90 | 1006.6 |
| 20260509155205 | 13 | 265 | 0.0 | 0.0 | 0.00 | 0.48 | 0.28 | 92 | 1006.5 |
| 20260509154704 | 13 | 276 | 0.0 | 0.0 | 0.00 | 0.48 | 0.28 | 92 | 1006.4 |
| 20260509153204 | 13 | 269 | 0.0 | 0.0 | 0.03 | 0.48 | 0.28 | 98 | 1006.3 |
| 20260509152704 | 13 | 206 | 0.0 | 0.0 | 0.03 | 0.48 | 0.28 | 97 | 1006.4 |
| 20260509152204 | 12 | 260 | 0.0 | 0.0 | 0.03 | 0.48 | 0.28 | 98 | 1006.4 |
| 20260509151203 | 12 | 188 | 0.0 | 0.0 | 0.08 | 0.48 | 0.28 | 98 | 1006.4 |
| 20260509150704 | 12 | 271 | 0.0 | 0.0 | 0.08 | 0.48 | 0.28 | 99 | 1006.4 |
| 20260509150204 | 12 | 159 | 0.0 | 0.0 | 0.10 | 0.48 | 0.28 | 99 | 1006.5 |
| 20260509145704 | 12 | 216 | 0.0 | 0.0 | 0.10 | 0.48 | 0.28 | 99 | 1006.4 |
| 20260509145204 | 12 | 224 | 0.0 | 0.0 | 0.10 | 0.48 | 0.28 | 99 | 1006.5 |
| 20260509144704 | 11 | 194 | 0.0 | 0.0 | 0.13 | 0.48 | 0.28 | 99 | 1006.5 |
| 20260509144203 | 11 | 229 | 0.0 | 0.0 | 0.13 | 0.48 | 0.28 | 99 | 1006.5 |
| 20260509143704 | 11 | 195 | 0.0 | 0.0 | 0.10 | 0.46 | 0.25 | 99 | 1006.5 |
| 20260509143204 | 11 | 215 | 0.0 | 0.0 | 0.10 | 0.46 | 0.25 | 99 | 1006.5 |
| 20260509142704 | 11 | 206 | 0.0 | 0.0 | 0.10 | 0.46 | 0.25 | 99 | 1006.6 |
| 20260509142204 | 11 | 190 | 0.0 | 0.0 | 0.10 | 0.46 | 0.25 | 99 | 1006.7 |
| 20260509141203 | 11 | 254 | 0.0 | 0.0 | 0.05 | 0.41 | 0.20 | 99 | 1006.9 |
| 20260509140703 | 11 | 209 | 0.0 | 0.0 | 0.05 | 0.41 | 0.20 | 99 | 1006.8 |
| 20260509140204 | 11 | 222 | 0.0 | 0.0 | 0.03 | 0.38 | 0.18 | 99 | 1006.8 |
| 20260509135704 | 11 | 203 | 0.0 | 0.0 | 0.03 | 0.38 | 0.18 | 99 | 1006.7 |
| 20260509135204 | 10 | 202 | 0.0 | 1.6 | 0.05 | 0.38 | 0.18 | 99 | 1006.7 |
| 20260509134704 | 10 | 200 | 0.0 | 0.0 | 0.03 | 0.36 | 0.15 | 99 | 1006.7 |
| 20260509134204 | 10 | 218 | 0.0 | 0.0 | 0.03 | 0.36 | 0.15 | 99 | 1006.8 |
| 20260509133703 | 10 | 197 | 0.0 | 0.0 | 0.03 | 0.36 | 0.15 | 99 | 1006.9 |
| 20260509133204 | 10 | 197 | 0.0 | 0.0 | 0.03 | 0.36 | 0.15 | 99 | 1006.9 |
| 20260509132704 | 10 | 196 | 0.0 | 0.0 | 0.03 | 0.36 | 0.15 | 99 | 1006.9 |
| 20260509132204 | 10 | 196 | 0.0 | 0.0 | 0.03 | 0.36 | 0.15 | 99 | 1006.9 |
| 20260509131704 | 10 | 194 | 0.0 | 0.0 | 0.03 | 0.36 | 0.15 | 99 | 1006.9 |
| 20260509131204 | 10 | 227 | 0.0 | 0.0 | 0.03 | 0.36 | 0.15 | 99 | 1006.9 |
| 20260509130704 | 10 | 199 | 0.0 | 0.0 | 0.05 | 0.36 | 0.15 | 99 | 1006.9 |
| 20260509130204 | 10 | 195 | 0.0 | 0.0 | 0.05 | 0.36 | 0.15 | 99 | 1006.9 |
| 20260509125704 | 10 | 179 | 0.0 | 0.0 | 0.05 | 0.36 | 0.15 | 99 | 1006.8 |
| 20260509125204 | 10 | 198 | 0.0 | 0.0 | 0.03 | 0.33 | 0.13 | 99 | 1006.9 |
| 20260509124703 | 10 | 198 | 0.0 | 0.0 | 0.03 | 0.33 | 0.13 | 99 | 1006.9 |
| 20260509124204 | 10 | 201 | 0.0 | 0.0 | 0.03 | 0.33 | 0.13 | 99 | 1007.0 |
| 20260509123704 | 10 | 233 | 0.0 | 0.0 | 0.03 | 0.33 | 0.13 | 99 | 1007.1 |
| 20260509123204 | 10 | 245 | 0.0 | 0.0 | 0.03 | 0.33 | 0.13 | 99 | 1007.1 |
| 20260509122704 | 10 | 224 | 0.0 | 0.0 | 0.03 | 0.33 | 0.13 | 99 | 1007.1 |
| 20260509122204 | 10 | 227 | 0.0 | 0.0 | 0.03 | 0.33 | 0.13 | 99 | 1007.1 |
| 20260509121704 | 10 | 242 | 0.0 | 0.0 | 0.03 | 0.33 | 0.13 | 99 | 1007.1 |
| 20260509121204 | 10 | 195 | 0.0 | 0.0 | 0.03 | 0.33 | 0.13 | 99 | 1007.1 |
| 20260509120704 | 10 | 219 | 0.0 | 0.0 | 0.00 | 0.30 | 0.10 | 99 | 1007.2 |
| 20260509120203 | 10 | 235 | 0.0 | 0.0 | 0.00 | 0.30 | 0.10 | 99 | 1007.2 |
| 20260509115703 | 10 | 226 | 0.0 | 0.0 | 0.00 | 0.30 | 0.10 | 99 | 1007.1 |
| 20260509115204 | 10 | 191 | 0.0 | 0.0 | 0.00 | 0.30 | 0.10 | 99 | 1007.1 |
| 20260509114704 | 10 | 186 | 0.0 | 0.0 | 0.00 | 0.30 | 0.10 | 99 | 1007.1 |
| 20260509114203 | 10 | 205 | 0.0 | 0.0 | 0.00 | 0.30 | 0.10 | 99 | 1007.0 |
| 20260509113703 | 10 | 279 | 0.0 | 0.0 | 0.00 | 0.30 | 0.10 | 99 | 1006.9 |
| 20260509113204 | 10 | 196 | 0.0 | 0.0 | 0.03 | 0.30 | 0.10 | 99 | 1006.9 |
| 20260509112704 | 10 | 196 | 0.0 | 0.0 | 0.03 | 0.30 | 0.10 | 99 | 1006.9 |
| 20260509112204 | 9 | 196 | 0.0 | 0.0 | 0.03 | 0.30 | 0.10 | 99 | 1006.8 |
| 20260509111703 | 9 | 214 | 0.0 | 0.0 | 0.03 | 0.30 | 0.10 | 99 | 1006.9 |
| 20260509110704 | 9 | 214 | 0.0 | 0.0 | 0.03 | 0.30 | 0.10 | 99 | 1006.9 |
| 20260509110204 | 9 | 208 | 0.0 | 0.0 | 0.03 | 0.30 | 0.10 | 99 | 1006.8 |
| 20260509105703 | 9 | 208 | 0.0 | 0.0 | 0.03 | 0.30 | 0.10 | 99 | 1006.9 |
| 20260509105203 | 9 | 187 | 0.0 | 0.0 | 0.03 | 0.30 | 0.10 | 99 | 1006.9 |
| 20260509104703 | 9 | 214 | 0.0 | 0.0 | 0.03 | 0.30 | 0.10 | 99 | 1006.8 |
| 20260509104203 | 9 | 218 | 0.0 | 0.0 | 0.03 | 0.30 | 0.10 | 99 | 1006.7 |
| 20260509103704 | 9 | 218 | 0.0 | 0.0 | 0.03 | 0.30 | 0.10 | 99 | 1006.7 |
| 20260509103204 | 9 | 218 | 0.0 | 0.0 | 0.00 | 0.28 | 0.08 | 99 | 1006.8 |
| 20260509102703 | 9 | 217 | 0.0 | 0.0 | 0.00 | 0.28 | 0.08 | 99 | 1007.0 |
| 20260509102204 | 9 | 218 | 0.0 | 0.0 | 0.00 | 0.28 | 0.08 | 99 | 1006.9 |
| 20260509101703 | 9 | 217 | 0.0 | 0.0 | 0.00 | 0.28 | 0.08 | 99 | 1006.9 |
| 20260509101204 | 9 | 180 | 0.0 | 0.0 | 0.00 | 0.28 | 0.08 | 99 | 1006.8 |
| 20260509100704 | 9 | 180 | 0.0 | 0.0 | 0.00 | 0.28 | 0.08 | 99 | 1006.8 |
| 20260509100203 | 9 | 176 | 0.0 | 0.0 | 0.00 | 0.28 | 0.08 | 99 | 1006.9 |
| 20260509095703 | 9 | 84 | 0.0 | 0.0 | 0.00 | 0.28 | 0.08 | 99 | 1006.9 |
| 20260509095203 | 9 | 85 | 0.0 | 0.0 | 0.00 | 0.28 | 0.08 | 99 | 1006.9 |
| 20260509094704 | 9 | 84 | 0.0 | 0.0 | 0.00 | 0.28 | 0.08 | 99 | 1006.9 |
| 20260509094204 | 9 | 84 | 0.0 | 0.0 | 0.00 | 0.28 | 0.08 | 99 | 1007.0 |
| 20260509093703 | 9 | 84 | 0.0 | 0.0 | 0.00 | 0.28 | 0.08 | 99 | 1007.0 |
| 20260509093203 | 9 | 84 | 0.0 | 0.0 | 0.00 | 0.28 | 0.08 | 99 | 1007.1 |
| 20260509092704 | 9 | 85 | 0.0 | 0.0 | 0.00 | 0.28 | 0.08 | 99 | 1007.1 |
| 20260509092205 | 9 | 85 | 0.0 | 0.0 | 0.00 | 0.28 | 0.08 | 99 | 1007.1 |
| 20260509091704 | 9 | 85 | 0.0 | 0.0 | 0.00 | 0.28 | 0.08 | 99 | 1007.1 |
| 20260509091203 | 9 | 84 | 0.0 | 0.0 | 0.00 | 0.28 | 0.08 | 99 | 1007.3 |
| 20260509090703 | 9 | 84 | 0.0 | 0.0 | 0.03 | 0.28 | 0.08 | 99 | 1007.4 |
| 20260509090204 | 9 | 84 | 0.0 | 0.0 | 0.03 | 0.28 | 0.08 | 99 | 1007.4 |
| 20260509085704 | 9 | 84 | 0.0 | 0.0 | 0.03 | 0.28 | 0.08 | 99 | 1007.5 |
| 20260509085204 | 9 | 85 | 0.0 | 0.0 | 0.03 | 0.28 | 0.08 | 99 | 1007.5 |
| 20260509084703 | 9 | 85 | 0.0 | 0.0 | 0.03 | 0.28 | 0.08 | 99 | 1007.5 |
| 20260509084204 | 9 | 84 | 0.0 | 0.0 | 0.05 | 0.28 | 0.08 | 99 | 1007.6 |
| 20260509083704 | 9 | 85 | 0.0 | 0.0 | 0.05 | 0.28 | 0.08 | 99 | 1007.5 |
| 20260509083204 | 9 | 84 | 0.0 | 0.0 | 0.05 | 0.28 | 0.08 | 99 | 1007.5 |
| 20260509082203 | 9 | 84 | 0.0 | 0.0 | 0.05 | 0.28 | 0.08 | 99 | 1007.8 |
| 20260509081704 | 8 | 83 | 0.0 | 0.0 | 0.05 | 0.28 | 0.08 | 99 | 1007.8 |
| 20260509081204 | 8 | 84 | 0.0 | 0.0 | 0.05 | 0.28 | 0.08 | 99 | 1008.0 |
| 20260509080703 | 8 | 83 | 0.0 | 0.0 | 0.03 | 0.25 | 0.05 | 99 | 1007.9 |
| 20260509075704 | 8 | 83 | 0.0 | 0.0 | 0.03 | 0.25 | 0.05 | 99 | 1008.0 |
| 20260509075204 | 8 | 83 | 0.0 | 0.0 | 0.03 | 0.25 | 0.05 | 99 | 1008.1 |
| 20260509074704 | 8 | 83 | 0.0 | 0.0 | 0.03 | 0.25 | 0.05 | 99 | 1008.1 |
| 20260509074203 | 8 | 83 | 0.0 | 0.0 | 0.00 | 0.23 | 0.03 | 99 | 1008.1 |
| 20260509073704 | 8 | 83 | 0.0 | 0.0 | 0.00 | 0.23 | 0.03 | 99 | 1008.1 |
| 20260509073204 | 8 | 83 | 0.0 | 0.0 | 0.00 | 0.23 | 0.03 | 99 | 1008.1 |
| 20260509072703 | 8 | 83 | 0.0 | 0.0 | 0.00 | 0.23 | 0.03 | 99 | 1008.1 |
| 20260509072204 | 8 | 83 | 0.0 | 0.0 | 0.00 | 0.23 | 0.03 | 99 | 1007.9 |
| 20260509071204 | 8 | 84 | 0.0 | 0.0 | 0.00 | 0.23 | 0.03 | 99 | 1007.9 |
| 20260509070704 | 8 | 83 | 0.0 | 0.0 | 0.00 | 0.23 | 0.03 | 99 | 1008.0 |
| 20260509070203 | 8 | 84 | 0.0 | 0.0 | 0.00 | 0.23 | 0.03 | 99 | 1008.0 |